createdAt,value
2015-07-15T00:00:09.462Z,99.58
2015-07-15T00:00:21.806Z,99.77
2015-07-15T00:00:34.149Z,99.02
2015-07-15T00:00:46.493Z,99.02
2015-07-15T00:00:58.844Z,99.3
2015-07-15T00:01:11.172Z,99.3
2015-07-15T00:01:23.516Z,99.35
2015-07-15T00:01:35.875Z,99.4
2015-07-15T00:01:48.219Z,99.4
2015-07-15T00:02:00.586Z,99.4
2015-07-15T00:02:12.946Z,99.02
2015-07-15T00:02:25.305Z,99.11
2015-07-15T00:02:37.680Z,99.21
2015-07-15T00:02:50.055Z,99.26
2015-07-15T00:03:02.437Z,99.3
2015-07-15T00:03:14.796Z,99.21
2015-07-15T00:03:27.187Z,99.44
2015-07-15T00:03:39.531Z,99.44
2015-07-15T00:03:51.875Z,99.35
2015-07-15T00:04:04.209Z,99.4
2015-07-15T00:04:16.552Z,99.44
2015-07-15T00:04:28.896Z,99.44
2015-07-15T00:04:41.240Z,99.21
2015-07-15T00:04:53.849Z,99.11
2015-07-15T00:05:06.181Z,99.11
2015-07-15T00:05:18.525Z,99.44
2015-07-15T00:05:30.869Z,99.26
2015-07-15T00:05:43.213Z,99.4
2015-07-15T00:05:55.541Z,99.3
2015-07-15T00:06:07.872Z,99.26
2015-07-15T00:06:20.216Z,98.69
2015-07-15T00:06:32.559Z,98.83
2015-07-15T00:06:44.903Z,99.21
2015-07-15T00:06:57.247Z,99.02
2015-07-15T00:07:09.596Z,99.49
2015-07-15T00:07:21.955Z,99.4
2015-07-15T00:07:34.314Z,99.3
2015-07-15T00:07:46.658Z,98.73
2015-07-15T00:07:59.049Z,98.64
2015-07-15T00:08:11.412Z,98.54
2015-07-15T00:08:23.615Z,98.21
2015-07-15T00:08:35.975Z,98.54
2015-07-15T00:08:48.350Z,98.21
2015-07-15T00:09:00.693Z,98.69
2015-07-15T00:09:13.039Z,98.54
2015-07-15T00:09:25.383Z,98.21
2015-07-15T00:09:37.711Z,98.21
2015-07-15T00:09:50.070Z,98.59
2015-07-15T00:10:02.414Z,98.79
2015-07-15T00:10:14.761Z,98.5
2015-07-15T00:10:27.105Z,98.54
2015-07-15T00:10:39.433Z,98.79
2015-07-15T00:10:51.777Z,98.69
2015-07-15T00:11:04.120Z,98.5
2015-07-15T00:11:16.450Z,98.69
2015-07-15T00:11:28.779Z,98.79
2015-07-15T00:11:41.122Z,98.64
2015-07-15T00:11:53.466Z,98.64
2015-07-15T00:12:05.794Z,98.79
2015-07-15T00:12:18.124Z,98.5
2015-07-15T00:12:30.468Z,98.54
2015-07-15T00:12:42.827Z,98.79
2015-07-15T00:12:55.171Z,99.35
2015-07-15T00:13:07.515Z,99.35
2015-07-15T00:13:19.877Z,99.49
2015-07-15T00:13:32.252Z,98.5
2015-07-15T00:13:44.627Z,99.44
2015-07-15T00:13:56.987Z,99.44
2015-07-15T00:14:09.362Z,98.97
2015-07-15T00:14:21.754Z,99.54
2015-07-15T00:14:34.114Z,99.35
2015-07-15T00:14:46.473Z,98.79
2015-07-15T00:14:58.817Z,99.26
2015-07-15T00:15:11.161Z,98.97
2015-07-15T00:15:23.491Z,98.88
2015-07-15T00:15:35.834Z,99.4
2015-07-15T00:15:48.444Z,99.35
2015-07-15T00:16:00.772Z,99.3
2015-07-15T00:16:13.116Z,99.3
2015-07-15T00:16:25.462Z,99.44
2015-07-15T00:16:37.853Z,99.21
2015-07-15T00:16:50.197Z,99.21
2015-07-15T00:17:02.525Z,99.21
2015-07-15T00:17:14.884Z,99.4
2015-07-15T00:17:27.261Z,99.21
2015-07-15T00:17:39.605Z,99.11
2015-07-15T00:17:51.949Z,99.4
2015-07-15T00:18:04.277Z,99.68
2015-07-15T00:18:16.636Z,99.68
2015-07-15T00:18:28.983Z,99.58
2015-07-15T00:18:41.327Z,99.58
2015-07-15T00:18:53.686Z,99.68
2015-07-15T00:19:06.046Z,99.49
2015-07-15T00:19:18.608Z,99.58
2015-07-15T00:19:31.032Z,99.4
2015-07-15T00:19:43.469Z,99.77
2015-07-15T00:19:56.844Z,99.49
2015-07-15T00:20:09.173Z,99.68
2015-07-15T00:20:21.548Z,99.58
2015-07-15T00:20:33.893Z,99.68
2015-07-15T00:20:46.221Z,99.58
2015-07-15T00:20:58.565Z,99.49
2015-07-15T00:21:10.925Z,99.3
2015-07-15T00:21:23.268Z,99.4
2015-07-15T00:21:35.614Z,99.99
2015-07-15T00:21:48.161Z,99.99
2015-07-15T00:22:00.880Z,99.87
2015-07-15T00:22:13.411Z,99.77
2015-07-15T00:22:25.755Z,99.77
2015-07-15T00:22:38.085Z,99.77
2015-07-15T00:22:50.913Z,99.87
2015-07-15T00:23:03.257Z,99.87
2015-07-15T00:23:15.600Z,99.99
2015-07-15T00:23:27.946Z,99.49
2015-07-15T00:23:40.306Z,99.4
2015-07-15T00:23:52.665Z,99.58
2015-07-15T00:24:05.227Z,99.49
2015-07-15T00:24:17.790Z,99.49
2015-07-15T00:24:30.260Z,99.97
2015-07-15T00:24:42.682Z,99.97
2015-07-15T00:24:55.575Z,99.99
2015-07-15T00:25:08.013Z,99.99
2015-07-15T00:25:20.419Z,99.99
2015-07-15T00:25:32.812Z,99.97
2015-07-15T00:25:46.542Z,99.87
2015-07-15T00:25:59.401Z,99.87
2015-07-15T00:26:13.058Z,99.77
2015-07-15T00:26:25.401Z,99.99
2015-07-15T00:26:37.778Z,99.97
2015-07-15T00:26:51.185Z,99.99
2015-07-15T00:27:04.153Z,99.99
2015-07-15T00:27:16.825Z,99.99
2015-07-15T00:27:29.169Z,99.99
2015-07-15T00:27:41.516Z,99.99
2015-07-15T00:27:53.938Z,99.99
2015-07-15T00:28:06.719Z,99.99
2015-07-15T00:28:19.063Z,99.99
2015-07-15T00:28:31.438Z,99.99
2015-07-15T00:28:43.798Z,99.99
2015-07-15T00:28:56.157Z,99.99
2015-07-15T00:29:08.517Z,99.99
2015-07-15T00:29:20.892Z,99.87
2015-07-15T00:29:33.236Z,99.97
2015-07-15T00:29:45.597Z,99.97
2015-07-15T00:29:58.128Z,99.99
2015-07-15T00:30:10.706Z,99.99
2015-07-15T00:30:23.409Z,99.99
2015-07-15T00:30:35.878Z,99.99
2015-07-15T00:30:47.911Z,99.99
2015-07-15T00:31:00.302Z,99.99
2015-07-15T00:31:12.693Z,99.99
2015-07-15T00:31:25.161Z,99.99
2015-07-15T00:31:37.615Z,99.99
2015-07-15T00:31:50.023Z,99.99
2015-07-15T00:32:02.445Z,99.99
2015-07-15T00:32:14.788Z,99.99
2015-07-15T00:32:27.148Z,99.99
2015-07-15T00:32:39.507Z,99.97
2015-07-15T00:32:51.853Z,99.99
2015-07-15T00:33:04.056Z,99.97
2015-07-15T00:33:16.431Z,99.99
2015-07-15T00:33:28.775Z,99.99
2015-07-15T00:33:41.121Z,99.97
2015-07-15T00:33:53.484Z,99.58
2015-07-15T00:34:05.828Z,99.87
2015-07-15T00:34:18.187Z,99.87
2015-07-15T00:34:30.546Z,99.99
2015-07-15T00:34:42.205Z,99.97
2015-07-15T00:34:54.564Z,99.87
2015-07-15T00:35:06.908Z,99.87
2015-07-15T00:35:19.236Z,99.97
2015-07-15T00:35:31.626Z,99.87
2015-07-15T00:35:43.988Z,99.87
2015-07-15T00:35:56.597Z,99.87
2015-07-15T00:36:08.957Z,99.87
2015-07-15T00:36:21.363Z,99.58
2015-07-15T00:36:33.769Z,99.77
2015-07-15T00:36:46.162Z,99.99
2015-07-15T00:36:58.537Z,99.87
2015-07-15T00:37:10.959Z,99.87
2015-07-15T00:37:23.334Z,99.97
2015-07-15T00:37:35.709Z,99.97
2015-07-15T00:37:48.054Z,99.97
2015-07-15T00:38:00.398Z,99.99
2015-07-15T00:38:12.757Z,99.99
2015-07-15T00:38:25.101Z,99.99
2015-07-15T00:38:37.461Z,99.99
2015-07-15T00:38:49.806Z,99.97
2015-07-15T00:39:02.166Z,99.99
2015-07-15T00:39:14.541Z,99.99
2015-07-15T00:39:26.884Z,99.99
2015-07-15T00:39:39.228Z,99.99
2015-07-15T00:39:51.574Z,99.97
2015-07-15T00:40:03.918Z,99.99
2015-07-15T00:40:16.261Z,99.97
2015-07-15T00:40:28.605Z,99.97
2015-07-15T00:40:40.949Z,99.99
2015-07-15T00:40:53.309Z,99.97
2015-07-15T00:41:05.637Z,99.77
2015-07-15T00:41:17.997Z,99.99
2015-07-15T00:41:30.341Z,99.99
2015-07-15T00:41:42.700Z,99.99
2015-07-15T00:41:55.109Z,99.99
2015-07-15T00:42:07.500Z,99.97
2015-07-15T00:42:19.875Z,99.99
2015-07-15T00:42:32.250Z,99.97
2015-07-15T00:42:44.672Z,99.97
2015-07-15T00:42:57.033Z,99.99
2015-07-15T00:43:09.408Z,99.99
2015-07-15T00:43:21.752Z,99.97
2015-07-15T00:43:34.096Z,99.77
2015-07-15T00:43:46.424Z,99.68
2015-07-15T00:43:58.754Z,99.87
2015-07-15T00:44:11.129Z,99.97
2015-07-15T00:44:22.769Z,99.99
2015-07-15T00:44:35.129Z,99.99
2015-07-15T00:44:47.473Z,99.99
2015-07-15T00:44:59.833Z,99.99
2015-07-15T00:45:12.177Z,99.68
2015-07-15T00:45:24.536Z,99.68
2015-07-15T00:45:36.880Z,99.99
2015-07-15T00:45:49.255Z,99.58
2015-07-15T00:46:01.602Z,99.87
2015-07-15T00:46:13.945Z,99.99
2015-07-15T00:46:26.305Z,99.99
2015-07-15T00:46:38.664Z,99.77
2015-07-15T00:46:51.023Z,99.87
2015-07-15T00:47:03.384Z,99.97
2015-07-15T00:47:15.759Z,99.97
2015-07-15T00:47:28.149Z,99.99
2015-07-15T00:47:40.524Z,99.49
2015-07-15T00:47:52.886Z,99.97
2015-07-15T00:48:05.276Z,99.58
2015-07-15T00:48:16.948Z,99.49
2015-07-15T00:48:29.308Z,99.49
2015-07-15T00:48:41.714Z,99.58
2015-07-15T00:48:54.061Z,99.58
2015-07-15T00:49:06.404Z,99.58
2015-07-15T00:49:18.748Z,99.58
2015-07-15T00:49:31.092Z,99.49
2015-07-15T00:49:43.436Z,99.58
2015-07-15T00:49:55.063Z,99.49
2015-07-15T00:50:07.422Z,99.49
2015-07-15T00:50:19.781Z,99.4
2015-07-15T00:50:32.156Z,99.68
2015-07-15T00:50:44.500Z,99.99
2015-07-15T00:50:56.830Z,99.97
2015-07-15T00:51:09.174Z,99.97
2015-07-15T00:51:21.518Z,99.87
2015-07-15T00:51:33.862Z,99.99
2015-07-15T00:51:46.205Z,99.58
2015-07-15T00:51:58.551Z,99.97
2015-07-15T00:52:10.895Z,99.87
2015-07-15T00:52:23.270Z,99.97
2015-07-15T00:52:35.629Z,99.97
2015-07-15T00:52:47.989Z,99.99
2015-07-15T00:53:00.365Z,99.99
2015-07-15T00:53:12.755Z,99.99
2015-07-15T00:53:25.146Z,99.99
2015-07-15T00:53:37.521Z,99.77
2015-07-15T00:53:49.911Z,99.99
2015-07-15T00:54:02.304Z,99.99
2015-07-15T00:54:14.726Z,99.99
2015-07-15T00:54:27.117Z,99.99
2015-07-15T00:54:39.460Z,99.99
2015-07-15T00:54:51.804Z,99.99
2015-07-15T00:55:04.165Z,99.99
2015-07-15T00:55:16.494Z,99.99
2015-07-15T00:55:28.853Z,99.99
2015-07-15T00:55:41.197Z,99.99
2015-07-15T00:55:53.556Z,99.99
2015-07-15T00:56:05.917Z,99.97
2015-07-15T00:56:18.292Z,99.99
2015-07-15T00:56:30.636Z,99.77
2015-07-15T00:56:42.985Z,99.58
2015-07-15T00:56:55.329Z,99.58
2015-07-15T00:57:07.674Z,99.99
2015-07-15T00:57:20.018Z,99.87
2015-07-15T00:57:32.362Z,99.97
2015-07-15T00:57:44.706Z,99.99
2015-07-15T00:57:57.065Z,99.87
2015-07-15T00:58:09.411Z,99.87
2015-07-15T00:58:21.777Z,99.87
2015-07-15T00:58:34.136Z,99.87
2015-07-15T00:58:46.511Z,99.87
2015-07-15T00:58:58.855Z,99.87
2015-07-15T00:59:11.216Z,99.87
2015-07-15T00:59:22.873Z,99.58
2015-07-15T00:59:35.263Z,99.87
2015-07-15T00:59:47.638Z,99.87
2015-07-15T00:59:59.998Z,99.58
2015-07-15T01:00:12.328Z,99.99
2015-07-15T01:00:24.687Z,99.97
2015-07-15T01:00:37.031Z,99.99
2015-07-15T01:00:49.375Z,99.68
2015-07-15T01:01:01.703Z,99.97
2015-07-15T01:01:14.044Z,99.97
2015-07-15T01:01:26.387Z,99.99
2015-07-15T01:01:38.731Z,99.99
2015-07-15T01:01:50.356Z,99.99
2015-07-15T01:02:02.684Z,99.99
2015-07-15T01:02:15.030Z,99.99
2015-07-15T01:02:27.374Z,99.99
2015-07-15T01:02:39.733Z,99.99
2015-07-15T01:02:51.358Z,99.99
2015-07-15T01:03:03.702Z,99.97
2015-07-15T01:03:16.048Z,99.97
2015-07-15T01:03:27.673Z,99.99
2015-07-15T01:03:40.032Z,99.99
2015-07-15T01:03:52.391Z,99.99
2015-07-15T01:04:04.766Z,99.97
2015-07-15T01:04:17.143Z,99.99
2015-07-15T01:04:29.534Z,99.99
2015-07-15T01:04:41.925Z,99.99
2015-07-15T01:04:54.300Z,99.99
2015-07-15T01:05:06.675Z,99.99
2015-07-15T01:05:19.067Z,99.99
2015-07-15T01:05:31.427Z,99.99
2015-07-15T01:05:43.786Z,99.99
2015-07-15T01:05:56.130Z,99.99
2015-07-15T01:06:08.474Z,99.99
2015-07-15T01:06:20.818Z,99.99
2015-07-15T01:06:33.162Z,99.97
2015-07-15T01:06:45.521Z,99.99
2015-07-15T01:06:59.209Z,99.99
2015-07-15T01:07:11.584Z,99.99
2015-07-15T01:07:23.930Z,99.99
2015-07-15T01:07:36.273Z,99.99
2015-07-15T01:07:48.617Z,99.99
2015-07-15T01:08:00.945Z,99.99
2015-07-15T01:08:13.289Z,99.99
2015-07-15T01:08:25.619Z,99.99
2015-07-15T01:08:37.979Z,99.99
2015-07-15T01:08:50.338Z,99.99
2015-07-15T01:09:02.682Z,99.99
2015-07-15T01:09:15.025Z,99.97
2015-07-15T01:09:27.377Z,99.97
2015-07-15T01:09:39.721Z,99.99
2015-07-15T01:09:52.065Z,99.99
2015-07-15T01:10:04.908Z,99.87
2015-07-15T01:10:17.283Z,99.87
2015-07-15T01:10:29.706Z,99.99
2015-07-15T01:10:42.144Z,99.97
2015-07-15T01:10:54.550Z,99.99
2015-07-15T01:11:06.917Z,99.99
2015-07-15T01:11:19.323Z,99.99
2015-07-15T01:11:31.669Z,99.99
2015-07-15T01:11:44.013Z,99.99
2015-07-15T01:11:56.357Z,99.99
2015-07-15T01:12:08.685Z,99.99
2015-07-15T01:12:21.044Z,99.99
2015-07-15T01:12:33.374Z,99.99
2015-07-15T01:12:45.718Z,99.99
2015-07-15T01:12:58.062Z,99.99
2015-07-15T01:13:10.405Z,99.99
2015-07-15T01:13:22.734Z,99.99
2015-07-15T01:13:35.079Z,99.99
2015-07-15T01:13:47.423Z,99.99
2015-07-15T01:13:59.767Z,99.99
2015-07-15T01:14:12.095Z,99.99
2015-07-15T01:14:24.423Z,99.99
2015-07-15T01:14:36.770Z,99.99
2015-07-15T01:14:49.114Z,99.99
2015-07-15T01:15:01.442Z,99.99
2015-07-15T01:15:13.785Z,99.99
2015-07-15T01:15:26.129Z,99.99
2015-07-15T01:15:38.490Z,99.99
2015-07-15T01:15:50.880Z,99.99
2015-07-15T01:16:03.255Z,99.99
2015-07-15T01:16:15.630Z,99.99
2015-07-15T01:16:27.990Z,99.99
2015-07-15T01:16:40.413Z,99.99
2015-07-15T01:16:52.773Z,99.99
2015-07-15T01:17:05.163Z,99.99
2015-07-15T01:17:17.538Z,99.99
2015-07-15T01:17:29.882Z,99.99
2015-07-15T01:17:42.213Z,99.99
2015-07-15T01:17:54.557Z,99.99
2015-07-15T01:18:06.916Z,99.99
2015-07-15T01:18:19.260Z,99.99
2015-07-15T01:18:31.589Z,99.99
2015-07-15T01:18:43.917Z,99.99
2015-07-15T01:18:56.261Z,99.99
2015-07-15T01:19:08.855Z,99.99
2015-07-15T01:19:21.199Z,99.99
2015-07-15T01:19:33.544Z,99.99
2015-07-15T01:19:45.888Z,99.99
2015-07-15T01:19:58.232Z,99.99
2015-07-15T01:20:10.576Z,99.99
2015-07-15T01:20:22.919Z,99.99
2015-07-15T01:20:35.250Z,99.99
2015-07-15T01:20:47.609Z,99.99
2015-07-15T01:20:59.968Z,99.99
2015-07-15T01:21:12.312Z,99.99
2015-07-15T01:21:24.671Z,99.97
2015-07-15T01:21:37.065Z,99.99
2015-07-15T01:21:49.424Z,99.97
2015-07-15T01:22:01.784Z,99.99
2015-07-15T01:22:14.174Z,99.87
2015-07-15T01:22:26.565Z,99.99
2015-07-15T01:22:38.925Z,99.99
2015-07-15T01:22:51.269Z,99.99
2015-07-15T01:23:03.613Z,99.99
2015-07-15T01:23:15.957Z,99.99
2015-07-15T01:23:28.285Z,99.99
2015-07-15T01:23:40.631Z,99.97
2015-07-15T01:23:52.974Z,99.99
2015-07-15T01:24:05.318Z,99.99
2015-07-15T01:24:17.662Z,99.99
2015-07-15T01:24:30.256Z,99.99
2015-07-15T01:24:42.867Z,99.99
2015-07-15T01:24:54.508Z,99.99
2015-07-15T01:25:06.836Z,99.99
2015-07-15T01:25:19.179Z,99.99
2015-07-15T01:25:31.539Z,99.99
2015-07-15T01:25:43.869Z,99.99
2015-07-15T01:25:56.197Z,99.99
2015-07-15T01:26:08.541Z,99.99
2015-07-15T01:26:20.869Z,99.99
2015-07-15T01:26:33.228Z,99.99
2015-07-15T01:26:45.590Z,99.99
2015-07-15T01:26:58.637Z,99.99
2015-07-15T01:27:10.996Z,99.99
2015-07-15T01:27:23.371Z,99.99
2015-07-15T01:27:35.730Z,99.99
2015-07-15T01:27:48.123Z,99.99
2015-07-15T01:28:00.498Z,99.99
2015-07-15T01:28:12.904Z,99.99
2015-07-15T01:28:25.264Z,99.99
2015-07-15T01:28:37.623Z,99.99
2015-07-15T01:28:49.953Z,99.99
2015-07-15T01:29:02.297Z,99.99
2015-07-15T01:29:14.641Z,99.99
2015-07-15T01:29:26.969Z,99.99
2015-07-15T01:29:39.328Z,99.99
2015-07-15T01:29:51.658Z,99.99
2015-07-15T01:30:04.002Z,99.99
2015-07-15T01:30:16.346Z,99.97
2015-07-15T01:30:28.689Z,99.58
2015-07-15T01:30:40.877Z,99.87
2015-07-15T01:30:53.223Z,99.99
2015-07-15T01:31:05.816Z,99.77
2015-07-15T01:31:18.160Z,99.99
2015-07-15T01:31:30.504Z,99.58
2015-07-15T01:31:42.848Z,99.77
2015-07-15T01:31:57.818Z,99.97
2015-07-15T01:32:10.162Z,99.87
2015-07-15T01:32:22.522Z,99.87
2015-07-15T01:32:34.897Z,99.99
2015-07-15T01:32:46.537Z,99.58
2015-07-15T01:32:58.899Z,99.58
2015-07-15T01:33:11.274Z,99.99
2015-07-15T01:33:23.649Z,99.49
2015-07-15T01:33:36.024Z,99.87
2015-07-15T01:33:48.414Z,99.87
2015-07-15T01:34:00.807Z,99.87
2015-07-15T01:34:13.182Z,99.87
2015-07-15T01:34:25.526Z,99.58
2015-07-15T01:34:37.854Z,99.68
2015-07-15T01:34:50.197Z,99.4
2015-07-15T01:35:02.527Z,99.77
2015-07-15T01:35:14.886Z,99.68
2015-07-15T01:35:27.214Z,99.58
2015-07-15T01:35:39.558Z,99.77
2015-07-15T01:35:51.902Z,99.87
2015-07-15T01:36:04.247Z,99.87
2015-07-15T01:36:16.591Z,99.87
2015-07-15T01:36:28.919Z,99.77
2015-07-15T01:36:41.263Z,99.87
2015-07-15T01:36:53.591Z,99.77
2015-07-15T01:37:05.938Z,99.77
2015-07-15T01:37:18.266Z,99.4
2015-07-15T01:37:30.594Z,99.58
2015-07-15T01:37:42.938Z,99.49
2015-07-15T01:37:55.282Z,99.4
2015-07-15T01:38:07.643Z,99.3
2015-07-15T01:38:20.002Z,99.87
2015-07-15T01:38:32.377Z,99.87
2015-07-15T01:38:44.752Z,99.77
2015-07-15T01:38:57.127Z,99.58
2015-07-15T01:39:09.503Z,99.58
2015-07-15T01:39:21.863Z,99.77
2015-07-15T01:39:34.238Z,99.87
2015-07-15T01:39:46.613Z,99.77
2015-07-15T01:39:58.958Z,99.4
2015-07-15T01:40:11.287Z,99.77
2015-07-15T01:40:23.615Z,99.68
2015-07-15T01:40:35.958Z,99.58
2015-07-15T01:40:48.302Z,99.49
2015-07-15T01:41:00.649Z,99.97
2015-07-15T01:41:12.993Z,99.97
2015-07-15T01:41:25.336Z,99.99
2015-07-15T01:41:37.680Z,99.97
2015-07-15T01:41:50.024Z,99.97
2015-07-15T01:42:02.385Z,99.97
2015-07-15T01:42:14.729Z,99.97
2015-07-15T01:42:27.088Z,99.97
2015-07-15T01:42:39.432Z,99.99
2015-07-15T01:42:51.776Z,99.68
2015-07-15T01:43:04.121Z,99.99
2015-07-15T01:43:16.449Z,99.4
2015-07-15T01:43:28.793Z,99.49
2015-07-15T01:43:41.152Z,99.68
2015-07-15T01:43:53.496Z,99.68
2015-07-15T01:44:05.857Z,99.3
2015-07-15T01:44:18.248Z,99.58
2015-07-15T01:44:30.607Z,99.87
2015-07-15T01:44:42.982Z,99.87
2015-07-15T01:44:55.357Z,99.58
2015-07-15T01:45:07.593Z,99.68
2015-07-15T01:45:19.953Z,99.87
2015-07-15T01:45:32.312Z,99.58
2015-07-15T01:45:44.922Z,99.68
2015-07-15T01:45:57.250Z,99.68
2015-07-15T01:46:09.595Z,99.21
2015-07-15T01:46:21.924Z,99.21
2015-07-15T01:46:34.267Z,99.21
2015-07-15T01:46:46.595Z,99.4
2015-07-15T01:46:58.939Z,99.3
2015-07-15T01:47:10.566Z,99.4
2015-07-15T01:47:22.926Z,99.11
2015-07-15T01:47:35.269Z,99.21
2015-07-15T01:47:47.597Z,99.02
2015-07-15T01:47:59.941Z,99.4
2015-07-15T01:48:12.287Z,99.4
2015-07-15T01:48:24.631Z,99.11
2015-07-15T01:48:36.974Z,99.21
2015-07-15T01:48:48.599Z,99.21
2015-07-15T01:49:00.928Z,99.02
2015-07-15T01:49:13.289Z,99.11
2015-07-15T01:49:25.633Z,99.11
2015-07-15T01:49:37.976Z,99.02
2015-07-15T01:49:50.383Z,99.11
2015-07-15T01:50:02.742Z,99.49
2015-07-15T01:50:15.103Z,99.11
2015-07-15T01:50:27.478Z,99.21
2015-07-15T01:50:39.838Z,99.4
2015-07-15T01:50:52.213Z,99.49
2015-07-15T01:51:04.603Z,99.11
2015-07-15T01:51:16.933Z,99.11
2015-07-15T01:51:29.276Z,99.02
2015-07-15T01:51:41.620Z,99.11
2015-07-15T01:51:53.964Z,99.4
2015-07-15T01:52:06.308Z,99.02
2015-07-15T01:52:18.654Z,99.3
2015-07-15T01:52:30.998Z,99.21
2015-07-15T01:52:43.326Z,99.02
2015-07-15T01:52:55.654Z,99.21
2015-07-15T01:53:08.014Z,99.3
2015-07-15T01:53:20.344Z,99.11
2015-07-15T01:53:32.672Z,99.21
2015-07-15T01:53:45.000Z,99.21
2015-07-15T01:53:57.344Z,99.4
2015-07-15T01:54:09.672Z,99.21
2015-07-15T01:54:22.018Z,99.11
2015-07-15T01:54:34.361Z,99.11
2015-07-15T01:54:46.721Z,99.4
2015-07-15T01:54:59.080Z,99.4
2015-07-15T01:55:11.424Z,99.11
2015-07-15T01:55:23.784Z,99.02
2015-07-15T01:55:36.159Z,99.02
2015-07-15T01:55:48.534Z,99.49
2015-07-15T01:56:00.909Z,99.4
2015-07-15T01:56:13.269Z,99.11
2015-07-15T01:56:25.631Z,99.21
2015-07-15T01:56:37.959Z,99.21
2015-07-15T01:56:50.287Z,99.11
2015-07-15T01:57:02.631Z,99.68
2015-07-15T01:57:14.975Z,99.3
2015-07-15T01:57:27.304Z,99.4
2015-07-15T01:57:39.632Z,99.97
2015-07-15T01:57:51.976Z,99.68
2015-07-15T01:58:04.320Z,99.4
2015-07-15T01:58:16.663Z,99.49
2015-07-15T01:58:29.009Z,99.99
2015-07-15T01:58:40.634Z,99.99
2015-07-15T01:58:52.978Z,99.87
2015-07-15T01:59:05.337Z,99.97
2015-07-15T01:59:17.665Z,99.97
2015-07-15T01:59:30.011Z,99.99
2015-07-15T01:59:42.339Z,99.77
2015-07-15T01:59:54.667Z,99.99
2015-07-15T02:00:07.027Z,99.99
2015-07-15T02:00:19.386Z,99.99
2015-07-15T02:00:31.733Z,99.99
2015-07-15T02:00:44.092Z,99.99
2015-07-15T02:00:56.483Z,99.99
2015-07-15T02:01:08.842Z,99.99
2015-07-15T02:01:21.202Z,99.99
2015-07-15T02:01:33.578Z,99.99
2015-07-15T02:01:45.937Z,99.99
2015-07-15T02:01:58.296Z,99.99
2015-07-15T02:02:10.640Z,99.99
2015-07-15T02:02:22.984Z,99.99
2015-07-15T02:02:35.314Z,99.99
2015-07-15T02:02:47.658Z,99.99
2015-07-15T02:03:00.001Z,99.99
2015-07-15T02:03:12.330Z,99.99
2015-07-15T02:03:24.939Z,99.99
2015-07-15T02:03:37.286Z,99.99
2015-07-15T02:03:49.629Z,99.99
2015-07-15T02:04:01.973Z,99.99
2015-07-15T02:04:14.301Z,99.99
2015-07-15T02:04:26.629Z,99.99
2015-07-15T02:04:38.990Z,99.99
2015-07-15T02:04:51.318Z,99.99
2015-07-15T02:05:03.662Z,99.99
2015-07-15T02:05:15.990Z,99.99
2015-07-15T02:05:28.334Z,99.99
2015-07-15T02:05:40.523Z,99.99
2015-07-15T02:05:52.867Z,99.99
2015-07-15T02:06:05.226Z,99.99
2015-07-15T02:06:17.586Z,99.99
2015-07-15T02:06:29.961Z,99.99
2015-07-15T02:06:42.338Z,99.99
2015-07-15T02:06:54.728Z,99.99
2015-07-15T02:07:07.088Z,99.99
2015-07-15T02:07:19.478Z,99.99
2015-07-15T02:07:31.853Z,99.99
2015-07-15T02:07:44.183Z,99.99
2015-07-15T02:07:56.527Z,99.99
2015-07-15T02:08:08.871Z,99.99
2015-07-15T02:08:21.199Z,99.99
2015-07-15T02:08:33.558Z,99.99
2015-07-15T02:08:45.888Z,99.99
2015-07-15T02:08:58.232Z,99.97
2015-07-15T02:09:10.576Z,99.77
2015-07-15T02:09:22.920Z,99.97
2015-07-15T02:09:35.263Z,99.87
2015-07-15T02:09:47.610Z,99.99
2015-07-15T02:09:59.954Z,99.99
2015-07-15T02:10:12.298Z,99.97
2015-07-15T02:10:24.641Z,99.77
2015-07-15T02:10:36.251Z,99.99
2015-07-15T02:10:48.597Z,99.87
2015-07-15T02:11:00.925Z,99.58
2015-07-15T02:11:13.284Z,99.97
2015-07-15T02:11:25.628Z,99.87
2015-07-15T02:11:37.987Z,99.87
2015-07-15T02:11:50.348Z,99.99
2015-07-15T02:12:02.723Z,99.97
2015-07-15T02:12:15.082Z,99.87
2015-07-15T02:12:27.457Z,99.87
2015-07-15T02:12:39.832Z,99.97
2015-07-15T02:12:52.226Z,99.97
2015-07-15T02:13:04.585Z,99.87
2015-07-15T02:13:16.960Z,99.99
2015-07-15T02:13:29.304Z,99.99
2015-07-15T02:13:41.632Z,99.97
2015-07-15T02:13:53.977Z,99.99
2015-07-15T02:14:06.320Z,99.97
2015-07-15T02:14:18.648Z,99.99
2015-07-15T02:14:31.258Z,99.87
2015-07-15T02:14:43.602Z,99.99
2015-07-15T02:14:55.933Z,99.97
2015-07-15T02:15:07.558Z,99.97
2015-07-15T02:15:19.901Z,99.99
2015-07-15T02:15:32.230Z,99.99
2015-07-15T02:15:44.573Z,99.87
2015-07-15T02:15:56.918Z,99.77
2015-07-15T02:16:09.262Z,99.99
2015-07-15T02:16:21.590Z,99.99
2015-07-15T02:16:33.918Z,99.97
2015-07-15T02:16:46.262Z,99.97
2015-07-15T02:16:58.889Z,99.87
2015-07-15T02:17:11.233Z,99.58
2015-07-15T02:17:23.576Z,99.77
2015-07-15T02:17:35.951Z,99.97
2015-07-15T02:17:48.311Z,99.97
2015-07-15T02:18:00.688Z,99.77
2015-07-15T02:18:13.047Z,99.97
2015-07-15T02:18:25.422Z,99.99
2015-07-15T02:18:37.781Z,99.58
2015-07-15T02:18:50.127Z,99.87
2015-07-15T02:19:02.471Z,99.77
2015-07-15T02:19:14.799Z,99.87
2015-07-15T02:19:27.143Z,99.58
2015-07-15T02:19:39.471Z,99.68
2015-07-15T02:19:51.832Z,99.77
2015-07-15T02:20:04.192Z,99.97
2015-07-15T02:20:16.535Z,99.99
2015-07-15T02:20:28.864Z,99.97
2015-07-15T02:20:41.223Z,99.99
2015-07-15T02:20:53.553Z,99.97
2015-07-15T02:21:05.897Z,99.99
2015-07-15T02:21:18.241Z,99.99
2015-07-15T02:21:30.584Z,99.99
2015-07-15T02:21:42.928Z,99.99
2015-07-15T02:21:55.289Z,99.99
2015-07-15T02:22:07.633Z,99.99
2015-07-15T02:22:19.961Z,99.99
2015-07-15T02:22:32.336Z,99.99
2015-07-15T02:22:44.680Z,99.99
2015-07-15T02:22:57.009Z,99.99
2015-07-15T02:23:09.384Z,99.99
2015-07-15T02:23:21.759Z,99.99
2015-07-15T02:23:34.119Z,99.99
2015-07-15T02:23:46.478Z,99.99
2015-07-15T02:23:58.856Z,99.99
2015-07-15T02:24:11.200Z,99.99
2015-07-15T02:24:23.575Z,99.99
2015-07-15T02:24:35.918Z,99.99
2015-07-15T02:24:47.543Z,99.99
2015-07-15T02:24:59.873Z,99.99
2015-07-15T02:25:11.498Z,99.99
2015-07-15T02:25:23.841Z,99.99
2015-07-15T02:25:36.169Z,99.99
2015-07-15T02:25:48.498Z,99.99
2015-07-15T02:26:00.843Z,99.99
2015-07-15T02:26:13.468Z,99.99
2015-07-15T02:26:25.796Z,99.99
2015-07-15T02:26:38.140Z,99.99
2015-07-15T02:26:50.484Z,99.99
2015-07-15T02:27:02.815Z,99.99
2015-07-15T02:27:15.159Z,99.99
2015-07-15T02:27:27.487Z,99.99
2015-07-15T02:27:39.831Z,99.99
2015-07-15T02:27:52.174Z,99.99
2015-07-15T02:28:04.519Z,99.99
2015-07-15T02:28:16.863Z,99.99
2015-07-15T02:28:29.222Z,99.99
2015-07-15T02:28:41.566Z,99.99
2015-07-15T02:28:53.941Z,99.99
2015-07-15T02:29:06.288Z,99.99
2015-07-15T02:29:18.678Z,99.99
2015-07-15T02:29:31.038Z,99.99
2015-07-15T02:29:43.413Z,99.99
2015-07-15T02:29:55.772Z,99.99
2015-07-15T02:30:08.117Z,99.99
2015-07-15T02:30:20.445Z,99.99
2015-07-15T02:30:32.773Z,99.99
2015-07-15T02:30:45.117Z,99.99
2015-07-15T02:30:57.445Z,99.99
2015-07-15T02:31:09.791Z,99.99
2015-07-15T02:31:22.135Z,99.99
2015-07-15T02:31:34.463Z,99.99
2015-07-15T02:31:46.822Z,99.99
2015-07-15T02:31:59.166Z,99.99
2015-07-15T02:32:11.496Z,99.99
2015-07-15T02:32:23.855Z,99.99
2015-07-15T02:32:36.183Z,99.99
2015-07-15T02:32:48.527Z,99.99
2015-07-15T02:33:00.871Z,99.99
2015-07-15T02:33:13.202Z,99.99
2015-07-15T02:33:24.827Z,99.99
2015-07-15T02:33:37.186Z,99.99
2015-07-15T02:33:49.530Z,99.99
2015-07-15T02:34:01.874Z,99.99
2015-07-15T02:34:14.235Z,99.99
2015-07-15T02:34:26.595Z,99.99
2015-07-15T02:34:38.970Z,99.99
2015-07-15T02:34:51.329Z,99.99
2015-07-15T02:35:03.704Z,99.99
2015-07-15T02:35:16.096Z,99.99
2015-07-15T02:35:28.455Z,99.99
2015-07-15T02:35:40.861Z,99.99
2015-07-15T02:35:53.205Z,99.99
2015-07-15T02:36:05.533Z,99.99
2015-07-15T02:36:17.864Z,99.99
2015-07-15T02:36:30.208Z,99.99
2015-07-15T02:36:42.552Z,99.99
2015-07-15T02:36:54.896Z,99.99
2015-07-15T02:37:07.224Z,99.99
2015-07-15T02:37:19.568Z,99.99
2015-07-15T02:37:31.912Z,99.99
2015-07-15T02:37:44.240Z,99.99
2015-07-15T02:37:56.584Z,99.99
2015-07-15T02:38:08.928Z,99.99
2015-07-15T02:38:21.258Z,99.99
2015-07-15T02:38:32.883Z,99.99
2015-07-15T02:38:45.227Z,99.99
2015-07-15T02:38:57.555Z,99.99
2015-07-15T02:39:09.899Z,99.99
2015-07-15T02:39:22.244Z,99.99
2015-07-15T02:39:34.604Z,99.99